Time;durP1;ratioP1;P1;durP2;ratioP2;P2;SDS_P1;SDS_P2;PMS_P1;PMS_P2;Temp;Humidity;BMP_temperature;BMP_pressure;BME280_temperature;BME280_humidity;BME280_pressure;Samples;Min_cycle;Max_cycle;Signal;HPM_P1;HPM_P2
2021/08/14 00:02:18;;;;;;;;;;;26.30;49.60;;;;;;8364973;28;20302;-45
2021/08/14 00:06:19;;;;;;;;;;;26.30;49.60;;;;;;8363715;28;20378;-44
2021/08/14 00:10:19;;;;;;;;;;;26.30;49.60;;;;;;8365935;28;19925;-44
2021/08/14 00:14:20;;;;;;;;;;;26.30;49.60;;;;;;8364566;28;19928;-45
2021/08/14 00:18:20;;;;;;;;;;;26.30;49.50;;;;;;8364259;28;19944;-44
2021/08/14 00:22:21;;;;;;;;;;;26.30;49.50;;;;;;8364343;28;20003;-45
2021/08/14 00:26:21;;;;;;;;;;;26.30;49.50;;;;;;8365037;28;19913;-45
2021/08/14 00:30:22;;;;;;;;;;;26.30;49.60;;;;;;8363762;28;19966;-45
2021/08/14 00:34:23;;;;;;;;;;;26.30;49.50;;;;;;8364025;28;19932;-44
2021/08/14 00:38:23;;;;;;;;;;;26.30;49.60;;;;;;8364028;28;19917;-45
2021/08/14 00:42:24;;;;;;;;;;;26.30;49.60;;;;;;8364203;28;19917;-44
2021/08/14 00:46:24;;;;;;;;;;;26.30;49.60;;;;;;8363935;28;19917;-44
2021/08/14 00:50:24;;;;;;;;;;;26.20;49.50;;;;;;8363819;28;19916;-44
2021/08/14 00:54:25;;;;;;;;;;;26.20;49.60;;;;;;8363157;28;19925;-45
2021/08/14 00:58:26;;;;;;;;;;;26.20;49.60;;;;;;8363633;28;20439;-46
2021/08/14 01:02:26;;;;;;;;;;;26.20;49.60;;;;;;8364175;28;20297;-43
2021/08/14 01:06:27;;;;;;;;;;;26.20;49.60;;;;;;8362865;28;19924;-44
2021/08/14 01:10:27;;;;;;;;;;;26.20;49.60;;;;;;8363286;28;19917;-44
2021/08/14 01:14:29;;;;;;;;;;;26.20;49.60;;;;;;8363785;28;19924;-45
2021/08/14 01:18:29;;;;;;;;;;;26.20;49.60;;;;;;8374585;28;20427;-45
2021/08/14 01:22:30;;;;;;;;;;;26.20;49.60;;;;;;8374013;28;19921;-44
2021/08/14 01:26:30;;;;;;;;;;;26.20;49.70;;;;;;8374063;28;20396;-44
2021/08/14 01:30:31;;;;;;;;;;;26.20;49.60;;;;;;8373578;28;19951;-44
2021/08/14 01:34:32;;;;;;;;;;;26.20;49.60;;;;;;8374645;28;20328;-45
2021/08/14 01:38:32;;;;;;;;;;;26.10;49.60;;;;;;8374329;28;20267;-44
2021/08/14 01:42:33;;;;;;;;;;;26.20;49.70;;;;;;8373251;28;19924;-45
2021/08/14 01:46:34;;;;;;;;;;;26.10;49.70;;;;;;8373933;28;19916;-44
2021/08/14 01:50:35;;;;;;;;;;;26.10;49.60;;;;;;8372373;28;19931;-43
2021/08/14 01:54:35;;;;;;;;;;;26.10;49.70;;;;;;8373847;28;19921;-44
2021/08/14 01:58:36;;;;;;;;;;;26.10;49.70;;;;;;8373646;28;20381;-43
2021/08/14 02:02:36;;;;;;;;;;;26.10;49.70;;;;;;8373618;28;20369;-43
2021/08/14 02:06:37;;;;;;;;;;;26.10;49.70;;;;;;8373108;28;20281;-43
2021/08/14 02:10:37;;;;;;;;;;;26.10;49.70;;;;;;8374200;28;19913;-44
2021/08/14 02:14:38;;;;;;;;;;;26.10;49.70;;;;;;8373184;28;20305;-43
2021/08/14 02:18:38;;;;;;;;;;;26.10;49.70;;;;;;8372802;28;20293;-43
2021/08/14 02:22:39;;;;;;;;;;;26.00;49.70;;;;;;8372943;28;20340;-44
2021/08/14 02:26:39;;;;;;;;;;;26.10;49.80;;;;;;8371227;28;19920;-43
2021/08/14 02:30:40;;;;;;;;;;;26.10;49.80;;;;;;8368154;28;20297;-44
2021/08/14 02:34:40;;;;;;;;;;;26.00;49.70;;;;;;8367622;28;20448;-43
2021/08/14 02:38:41;;;;;;;;;;;26.00;49.70;;;;;;8367890;28;19923;-43
2021/08/14 02:42:42;;;;;;;;;;;26.00;49.70;;;;;;8367179;28;19924;-43
2021/08/14 02:46:43;;;;;;;;;;;26.00;49.70;;;;;;8367975;28;19924;-44
2021/08/14 02:50:44;;;;;;;;;;;26.00;49.70;;;;;;8367299;28;19998;-43
2021/08/14 02:54:44;;;;;;;;;;;26.00;49.80;;;;;;8366540;28;20345;-43
2021/08/14 02:58:45;;;;;;;;;;;26.00;49.70;;;;;;8367091;28;19970;-43
2021/08/14 03:02:45;;;;;;;;;;;26.00;49.80;;;;;;8367562;28;19923;-43
2021/08/14 03:06:46;;;;;;;;;;;26.00;49.80;;;;;;8366398;28;19928;-43
2021/08/14 03:10:46;;;;;;;;;;;26.00;49.80;;;;;;8366826;28;19917;-44
2021/08/14 03:14:47;;;;;;;;;;;25.90;49.70;;;;;;8366075;28;19924;-43
2021/08/14 03:18:47;;;;;;;;;;;25.90;49.80;;;;;;8366550;28;19917;-43
2021/08/14 03:22:48;;;;;;;;;;;25.90;49.80;;;;;;8367074;28;19991;-43
2021/08/14 03:26:49;;;;;;;;;;;25.90;50.30;;;;;;8365816;28;20008;-44
2021/08/14 03:30:49;;;;;;;;;;;25.90;49.80;;;;;;8366107;28;19921;-43
2021/08/14 03:34:50;;;;;;;;;;;25.90;49.80;;;;;;8365900;28;19929;-43
2021/08/14 03:38:50;;;;;;;;;;;25.90;49.80;;;;;;8365043;28;19939;-44
2021/08/14 03:42:50;;;;;;;;;;;25.90;49.80;;;;;;8365656;28;20313;-43
2021/08/14 03:46:51;;;;;;;;;;;25.90;49.80;;;;;;8365745;28;20340;-44
2021/08/14 03:50:51;;;;;;;;;;;25.90;49.80;;;;;;8365066;28;19916;-43
2021/08/14 03:54:52;;;;;;;;;;;25.90;49.80;;;;;;8366256;28;20020;-44
2021/08/14 03:58:52;;;;;;;;;;;25.90;49.70;;;;;;8365192;28;19916;-43
2021/08/14 04:02:53;;;;;;;;;;;25.90;49.80;;;;;;8364646;28;19924;-44
2021/08/14 04:06:53;;;;;;;;;;;25.90;49.80;;;;;;8364876;28;20385;-43
2021/08/14 04:10:54;;;;;;;;;;;25.90;49.80;;;;;;8363568;28;20399;-44
2021/08/14 04:14:54;;;;;;;;;;;25.90;49.80;;;;;;8364846;28;19931;-44
2021/08/14 04:18:55;;;;;;;;;;;25.90;49.80;;;;;;8364680;28;19956;-43
2021/08/14 04:22:55;;;;;;;;;;;25.90;49.80;;;;;;8364269;28;19917;-45
2021/08/14 04:26:56;;;;;;;;;;;25.80;49.80;;;;;;8364056;28;19924;-44
2021/08/14 04:30:56;;;;;;;;;;;25.80;49.80;;;;;;8364990;28;19924;-44
2021/08/14 04:34:57;;;;;;;;;;;25.80;49.80;;;;;;8364014;28;19932;-43
2021/08/14 04:38:57;;;;;;;;;;;25.80;49.80;;;;;;8363857;28;19971;-44
2021/08/14 04:42:58;;;;;;;;;;;25.80;49.80;;;;;;8363789;28;20389;-44
2021/08/14 04:47:02;;;;;;;;;;;25.80;49.80;;;;;;8364159;28;20455;-43
2021/08/14 04:51:03;;;;;;;;;;;25.80;49.80;;;;;;8363545;28;19939;-43
2021/08/14 04:55:03;;;;;;;;;;;25.80;49.90;;;;;;8363748;28;19925;-43
2021/08/14 04:59:04;;;;;;;;;;;25.80;49.90;;;;;;8363369;28;19924;-43
2021/08/14 05:03:05;;;;;;;;;;;25.80;49.80;;;;;;8363113;28;19917;-43
2021/08/14 05:07:05;;;;;;;;;;;25.80;49.90;;;;;;8364483;28;19921;-45
2021/08/14 05:11:06;;;;;;;;;;;25.80;49.90;;;;;;8363504;28;19921;-45
2021/08/14 05:15:06;;;;;;;;;;;25.80;49.90;;;;;;8362733;28;19936;-43
2021/08/14 05:19:07;;;;;;;;;;;25.80;49.90;;;;;;8363137;28;20011;-44
2021/08/14 05:23:07;;;;;;;;;;;25.70;49.80;;;;;;8364018;28;20003;-46
2021/08/14 05:27:08;;;;;;;;;;;25.70;49.80;;;;;;8362529;28;19959;-44
2021/08/14 05:31:08;;;;;;;;;;;25.70;49.80;;;;;;8362330;28;20399;-44
2021/08/14 05:35:09;;;;;;;;;;;25.70;49.90;;;;;;8362555;28;19932;-43
2021/08/14 05:39:09;;;;;;;;;;;25.70;49.80;;;;;;8362427;28;20350;-43
2021/08/14 05:43:10;;;;;;;;;;;25.80;49.90;;;;;;8363579;28;20381;-43
2021/08/14 05:47:10;;;;;;;;;;;25.70;49.90;;;;;;8362697;28;19996;-43
2021/08/14 05:51:11;;;;;;;;;;;25.70;49.80;;;;;;8362251;28;19924;-44
2021/08/14 05:55:12;;;;;;;;;;;25.70;49.80;;;;;;8362552;28;19951;-43
2021/08/14 05:59:12;;;;;;;;;;;25.70;49.90;;;;;;8363336;28;19960;-44
2021/08/14 06:03:13;;;;;;;;;;;25.70;49.90;;;;;;8365085;28;19924;-43
2021/08/14 06:07:13;;;;;;;;;;;25.70;49.90;;;;;;8368643;28;19921;-43
2021/08/14 06:11:14;;;;;;;;;;;25.70;49.80;;;;;;8368589;28;19917;-44
2021/08/14 06:15:14;;;;;;;;;;;25.70;49.80;;;;;;8368516;28;19928;-45
2021/08/14 06:19:15;;;;;;;;;;;25.70;49.80;;;;;;8368433;28;19929;-43
2021/08/14 06:23:15;;;;;;;;;;;25.80;49.90;;;;;;8368319;28;19921;-44
2021/08/14 06:27:16;;;;;;;;;;;25.70;49.80;;;;;;8367611;28;19921;-44
2021/08/14 06:31:16;;;;;;;;;;;25.70;49.80;;;;;;8368008;28;19924;-44
2021/08/14 06:35:17;;;;;;;;;;;25.70;49.80;;;;;;8368410;28;19932;-45
2021/08/14 06:39:17;;;;;;;;;;;25.70;49.80;;;;;;8367304;28;20414;-44
2021/08/14 06:43:18;;;;;;;;;;;25.70;49.80;;;;;;8367892;28;20394;-44
2021/08/14 06:47:18;;;;;;;;;;;25.70;50.30;;;;;;8367672;28;20317;-44
2021/08/14 06:51:19;;;;;;;;;;;25.70;49.80;;;;;;8367721;28;20013;-44
2021/08/14 06:55:19;;;;;;;;;;;25.70;49.80;;;;;;8367111;28;19978;-44
2021/08/14 06:59:20;;;;;;;;;;;25.70;49.80;;;;;;8367044;28;19988;-44
2021/08/14 07:03:20;;;;;;;;;;;25.70;49.70;;;;;;8366531;28;20320;-45
2021/08/14 07:07:21;;;;;;;;;;;25.80;49.80;;;;;;8367804;28;19921;-44
2021/08/14 07:11:22;;;;;;;;;;;25.80;49.70;;;;;;8366806;28;20023;-44
2021/08/14 07:15:22;;;;;;;;;;;25.80;49.60;;;;;;8365689;28;19925;-44
2021/08/14 07:19:23;;;;;;;;;;;25.90;49.50;;;;;;8366467;28;19942;-45
2021/08/14 07:23:23;;;;;;;;;;;25.90;49.30;;;;;;8366351;28;22327;-44
2021/08/14 07:27:25;;;;;;;;;;;25.90;49.30;;;;;;8366483;28;19943;-44
2021/08/14 07:31:26;;;;;;;;;;;25.90;49.40;;;;;;8366354;28;19916;-44
2021/08/14 07:35:26;;;;;;;;;;;25.90;49.50;;;;;;8366018;28;19971;-44
2021/08/14 07:39:27;;;;;;;;;;;25.90;49.60;;;;;;8365555;28;19916;-45
2021/08/14 07:43:27;;;;;;;;;;;25.90;49.80;;;;;;8366505;28;19927;-44
2021/08/14 07:47:28;;;;;;;;;;;25.90;49.60;;;;;;8363985;28;19921;-45
2021/08/14 07:51:28;;;;;;;;;;;25.90;49.70;;;;;;8365034;28;19917;-44
2021/08/14 07:55:29;;;;;;;;;;;25.90;49.60;;;;;;8365098;28;20440;-44
2021/08/14 07:59:30;;;;;;;;;;;25.90;49.70;;;;;;8365486;28;20007;-44
2021/08/14 08:03:30;;;;;;;;;;;25.90;49.70;;;;;;8365455;28;19956;-44
2021/08/14 08:07:31;;;;;;;;;;;25.90;49.70;;;;;;8365157;28;20050;-43
2021/08/14 08:11:31;;;;;;;;;;;25.90;49.70;;;;;;8364962;28;19974;-46
2021/08/14 08:15:32;;;;;;;;;;;25.90;49.70;;;;;;8364324;28;19963;-44
2021/08/14 08:19:32;;;;;;;;;;;25.90;49.60;;;;;;8365569;28;20011;-44
2021/08/14 08:23:33;;;;;;;;;;;25.90;49.70;;;;;;8364498;28;19975;-45
2021/08/14 08:27:36;;;;;;;;;;;25.90;49.70;;;;;;8363276;28;20439;-44
2021/08/14 08:31:36;;;;;;;;;;;25.90;49.80;;;;;;8364173;28;19916;-44
2021/08/14 08:35:37;;;;;;;;;;;25.90;49.70;;;;;;8364879;28;19920;-46
2021/08/14 08:39:37;;;;;;;;;;;25.90;49.70;;;;;;8363659;28;19917;-44
2021/08/14 08:43:40;;;;;;;;;;;25.90;49.70;;;;;;8364254;28;19946;-45
2021/08/14 08:47:42;;;;;;;;;;;25.90;49.80;;;;;;8364055;28;20278;-44
2021/08/14 08:51:42;;;;;;;;;;;25.90;49.80;;;;;;8363228;28;19956;-44
2021/08/14 08:55:43;;;;;;;;;;;25.90;49.70;;;;;;8364217;28;19921;-44
2021/08/14 08:59:44;;;;;;;;;;;25.90;49.80;;;;;;8363655;28;19921;-47
2021/08/14 09:03:45;;;;;;;;;;;25.90;49.80;;;;;;8362971;28;19962;-44
2021/08/14 09:07:46;;;;;;;;;;;26.00;49.80;;;;;;8363488;28;19921;-45
2021/08/14 09:11:48;;;;;;;;;;;25.90;49.80;;;;;;8379532;28;20012;-44
2021/08/14 09:15:48;;;;;;;;;;;26.00;49.90;;;;;;8363048;28;19925;-44
2021/08/14 09:19:50;;;;;;;;;;;26.00;49.80;;;;;;8363282;28;19999;-44
2021/08/14 09:23:51;;;;;;;;;;;26.00;49.80;;;;;;8362746;28;19921;-44
2021/08/14 09:27:55;;;;;;;;;;;26.00;49.80;;;;;;8363210;28;20396;-44
2021/08/14 09:31:56;;;;;;;;;;;26.00;49.80;;;;;;8363577;28;19916;-45
2021/08/14 09:35:56;;;;;;;;;;;26.10;49.90;;;;;;8363634;28;20321;-45
2021/08/14 09:40:01;;;;;;;;;;;26.10;49.90;;;;;;8369591;28;20007;-46
2021/08/14 09:44:02;;;;;;;;;;;26.10;49.90;;;;;;8369717;28;19974;-44
2021/08/14 09:48:15;;;;;;;;;;;26.10;49.90;;;;;;8369815;28;19956;-45
2021/08/14 09:52:20;;;;;;;;;;;26.10;49.80;;;;;;8369106;28;19927;-44
2021/08/14 09:56:22;;;;;;;;;;;26.10;49.80;;;;;;8369179;28;19929;-44
2021/08/14 10:00:22;;;;;;;;;;;26.20;49.90;;;;;;8368751;28;19917;-44
2021/08/14 10:04:23;;;;;;;;;;;26.20;49.80;;;;;;8369067;28;20015;-44
2021/08/14 10:08:24;;;;;;;;;;;26.20;49.80;;;;;;8370108;28;20358;-44
2021/08/14 10:12:25;;;;;;;;;;;26.20;49.70;;;;;;8368281;28;20366;-44
2021/08/14 10:16:26;;;;;;;;;;;26.20;49.70;;;;;;8368790;28;20412;-45
2021/08/14 10:20:26;;;;;;;;;;;26.20;49.60;;;;;;8368378;28;20007;-46
2021/08/14 10:24:34;;;;;;;;;;;26.30;49.70;;;;;;8368565;28;19923;-47
2021/08/14 10:28:51;;;;;;;;;;;26.30;49.70;;;;;;8368346;28;20377;-47
2021/08/14 10:32:51;;;;;;;;;;;26.30;49.70;;;;;;8367667;28;19924;-46
2021/08/14 10:36:52;;;;;;;;;;;26.40;49.70;;;;;;8367808;28;19924;-45
2021/08/14 10:40:57;;;;;;;;;;;26.30;49.60;;;;;;8367891;28;19963;-47
2021/08/14 10:45:11;;;;;;;;;;;26.40;49.70;;;;;;8368118;28;19924;-46
2021/08/14 10:49:13;;;;;;;;;;;26.40;49.60;;;;;;8367213;28;19916;-45
2021/08/14 10:53:15;;;;;;;;;;;26.40;49.60;;;;;;8367628;28;20019;-45
2021/08/14 10:57:35;;;;;;;;;;;26.50;49.70;;;;;;8366798;28;19916;-44
2021/08/14 11:01:36;;;;;;;;;;;26.50;49.70;;;;;;8367241;28;19994;-44
2021/08/14 11:05:37;;;;;;;;;;;26.50;49.70;;;;;;8367608;28;19916;-45
2021/08/14 11:09:38;;;;;;;;;;;26.50;49.60;;;;;;8366967;28;19950;-44
2021/08/14 11:13:39;;;;;;;;;;;26.50;49.70;;;;;;8366771;28;19925;-46
2021/08/14 11:17:40;;;;;;;;;;;26.50;49.60;;;;;;8363265;28;20374;-46
2021/08/14 11:21:44;;;;;;;;;;;26.50;49.60;;;;;;8333849;28;20348;-44
2021/08/14 11:25:45;;;;;;;;;;;26.50;49.60;;;;;;8320535;28;19917;-44
2021/08/14 11:29:46;;;;;;;;;;;26.60;49.60;;;;;;8352723;28;19917;-44
2021/08/14 11:33:46;;;;;;;;;;;26.60;49.60;;;;;;8341009;28;19924;-45
2021/08/14 11:37:49;;;;;;;;;;;26.60;49.60;;;;;;8366622;28;20397;-45
2021/08/14 11:41:53;;;;;;;;;;;26.60;49.60;;;;;;8365998;28;19924;-45
2021/08/14 11:46:02;;;;;;;;;;;26.60;49.60;;;;;;8365857;28;20365;-45
2021/08/14 11:50:07;;;;;;;;;;;26.60;49.60;;;;;;8365894;28;19917;-45
2021/08/14 11:54:09;;;;;;;;;;;26.70;49.70;;;;;;8364891;28;19925;-44
2021/08/14 11:58:09;;;;;;;;;;;26.70;49.60;;;;;;8366501;28;19920;-45
2021/08/14 12:02:10;;;;;;;;;;;26.70;49.60;;;;;;8364227;28;20439;-45
2021/08/14 12:06:12;;;;;;;;;;;26.70;49.60;;;;;;8364875;28;19917;-45
2021/08/14 12:10:12;;;;;;;;;;;26.70;49.60;;;;;;8365515;28;20324;-46
2021/08/14 12:14:14;;;;;;;;;;;26.70;49.50;;;;;;8365356;28;19990;-45
2021/08/14 12:18:31;;;;;;;;;;;26.70;49.50;;;;;;8364774;28;19943;-45
2021/08/14 12:22:32;;;;;;;;;;;26.80;49.50;;;;;;8364679;28;19931;-45
2021/08/14 12:26:33;;;;;;;;;;;26.80;49.50;;;;;;8364602;28;20321;-45
2021/08/14 12:30:41;;;;;;;;;;;26.80;49.50;;;;;;8364075;28;19921;-45
2021/08/14 12:34:42;;;;;;;;;;;26.80;49.50;;;;;;8364928;28;19928;-44
2021/08/14 12:38:48;;;;;;;;;;;26.80;49.50;;;;;;8364388;28;19917;-43
2021/08/14 12:42:49;;;;;;;;;;;26.80;49.50;;;;;;8364101;28;19956;-43
2021/08/14 12:46:59;;;;;;;;;;;26.90;49.50;;;;;;8364231;28;19921;-44
2021/08/14 12:51:08;;;;;;;;;;;26.90;49.50;;;;;;8363485;28;19924;-42
2021/08/14 12:55:12;;;;;;;;;;;26.90;49.50;;;;;;8364373;28;19921;-43
2021/08/14 12:59:12;;;;;;;;;;;26.90;49.50;;;;;;8363575;28;20443;-45
2021/08/14 13:03:13;;;;;;;;;;;26.90;49.50;;;;;;8363197;28;19917;-43
2021/08/14 13:07:13;;;;;;;;;;;26.90;49.50;;;;;;8363796;28;19925;-43
2021/08/14 13:11:14;;;;;;;;;;;26.90;49.40;;;;;;8364249;28;20366;-43
2021/08/14 13:15:14;;;;;;;;;;;26.90;49.40;;;;;;8362767;28;19925;-44
2021/08/14 13:19:15;;;;;;;;;;;27.00;49.50;;;;;;8362139;28;20373;-44
2021/08/14 13:23:15;;;;;;;;;;;27.00;50.00;;;;;;8363308;28;19952;-44
2021/08/14 13:27:16;;;;;;;;;;;27.00;49.40;;;;;;8362704;28;20008;-43
2021/08/14 13:31:16;;;;;;;;;;;27.00;49.40;;;;;;8363885;28;19921;-44
2021/08/14 13:35:17;;;;;;;;;;;27.00;49.40;;;;;;8363099;28;19968;-44
2021/08/14 13:39:17;;;;;;;;;;;27.10;49.40;;;;;;8362780;28;19920;-45
2021/08/14 13:43:18;;;;;;;;;;;27.10;49.40;;;;;;8363252;28;20343;-44
2021/08/14 13:47:18;;;;;;;;;;;27.10;49.40;;;;;;8363628;28;19917;-44
2021/08/14 13:51:19;;;;;;;;;;;27.10;49.40;;;;;;8362431;28;19917;-44
2021/08/14 13:55:19;;;;;;;;;;;27.10;49.40;;;;;;8362933;28;19991;-44
2021/08/14 13:59:21;;;;;;;;;;;27.20;49.40;;;;;;8363010;28;19917;-44
2021/08/14 14:03:21;;;;;;;;;;;27.10;49.30;;;;;;8363162;28;19917;-44
2021/08/14 14:07:22;;;;;;;;;;;27.10;49.30;;;;;;8362653;28;19921;-44
2021/08/14 14:11:22;;;;;;;;;;;27.20;49.30;;;;;;8362489;28;20409;-44
2021/08/14 14:15:23;;;;;;;;;;;27.20;49.30;;;;;;8361886;28;20352;-43
2021/08/14 14:19:23;;;;;;;;;;;27.20;49.30;;;;;;8362524;28;19950;-43
2021/08/14 14:23:24;;;;;;;;;;;27.20;49.30;;;;;;8364972;28;20285;-44
2021/08/14 14:27:24;;;;;;;;;;;27.20;49.30;;;;;;8367994;28;19917;-44
2021/08/14 14:31:25;;;;;;;;;;;27.20;49.30;;;;;;8368423;28;20350;-45
2021/08/14 14:35:25;;;;;;;;;;;27.20;49.30;;;;;;8368108;28;20309;-44
2021/08/14 14:39:26;;;;;;;;;;;27.30;49.30;;;;;;8368272;28;19952;-45
2021/08/14 14:43:26;;;;;;;;;;;27.30;49.30;;;;;;8368180;28;19971;-44
2021/08/14 14:47:27;;;;;;;;;;;27.30;49.30;;;;;;8367832;28;19924;-45
2021/08/14 14:51:27;;;;;;;;;;;27.30;49.30;;;;;;8367177;28;19932;-44
2021/08/14 14:55:28;;;;;;;;;;;27.40;49.30;;;;;;8368084;28;19971;-44
2021/08/14 14:59:28;;;;;;;;;;;27.30;49.30;;;;;;8367798;28;19924;-44
2021/08/14 15:03:28;;;;;;;;;;;27.30;49.20;;;;;;8366757;28;19959;-44
2021/08/14 15:07:29;;;;;;;;;;;27.40;49.30;;;;;;8367195;28;19920;-44
2021/08/14 15:11:29;;;;;;;;;;;27.40;49.30;;;;;;8367133;28;19929;-44
2021/08/14 15:15:30;;;;;;;;;;;27.40;49.20;;;;;;8367055;28;20441;-44
2021/08/14 15:19:30;;;;;;;;;;;27.40;49.30;;;;;;8366626;28;19923;-44
2021/08/14 15:23:31;;;;;;;;;;;27.40;49.30;;;;;;8366667;28;19963;-44
2021/08/14 15:27:31;;;;;;;;;;;27.40;49.20;;;;;;8365931;28;19925;-44
2021/08/14 15:31:32;;;;;;;;;;;27.40;49.20;;;;;;8367464;28;19921;-44
2021/08/14 15:35:32;;;;;;;;;;;27.40;49.20;;;;;;8365926;28;19936;-44
2021/08/14 15:39:33;;;;;;;;;;;27.40;49.20;;;;;;8365687;28;19924;-45
2021/08/14 15:43:33;;;;;;;;;;;27.40;49.20;;;;;;8366150;28;19917;-44
2021/08/14 15:47:34;;;;;;;;;;;27.50;49.30;;;;;;8366021;28;19924;-44
2021/08/14 15:51:34;;;;;;;;;;;27.50;49.30;;;;;;8366013;28;19916;-47
2021/08/14 15:55:35;;;;;;;;;;;27.50;49.20;;;;;;8365705;28;19925;-44
2021/08/14 15:59:35;;;;;;;;;;;27.50;49.20;;;;;;8365582;28;19917;-46
2021/08/14 16:03:37;;;;;;;;;;;27.50;49.20;;;;;;8364897;28;20400;-44
2021/08/14 16:07:38;;;;;;;;;;;27.50;49.20;;;;;;8366139;28;19925;-44
2021/08/14 16:11:38;;;;;;;;;;;27.50;49.20;;;;;;8365409;28;20054;-44
2021/08/14 16:15:39;;;;;;;;;;;27.50;49.20;;;;;;8364520;28;19925;-44
2021/08/14 16:19:40;;;;;;;;;;;27.50;49.20;;;;;;8365241;28;19916;-43
2021/08/14 16:23:40;;;;;;;;;;;27.50;49.20;;;;;;8365720;28;19920;-44
2021/08/14 16:27:41;;;;;;;;;;;27.50;49.70;;;;;;8364081;28;19971;-44
2021/08/14 16:31:41;;;;;;;;;;;27.50;49.10;;;;;;8364848;28;20015;-44
2021/08/14 16:35:42;;;;;;;;;;;27.50;49.10;;;;;;8364381;28;19924;-45
2021/08/14 16:39:43;;;;;;;;;;;27.50;49.10;;;;;;8363870;28;20381;-44
2021/08/14 16:43:43;;;;;;;;;;;27.50;49.40;;;;;;8365088;28;19970;-45
2021/08/14 16:47:44;;;;;;;;;;;27.60;49.20;;;;;;8363373;28;20374;-44
2021/08/14 16:51:45;;;;;;;;;;;27.60;49.70;;;;;;8363539;28;19952;-43
2021/08/14 16:55:45;;;;;;;;;;;27.50;49.10;;;;;;8363897;28;20505;-45
2021/08/14 16:59:46;;;;;;;;;;;27.50;49.10;;;;;;8364538;28;19999;-45
2021/08/14 17:03:46;;;;;;;;;;;27.60;49.10;;;;;;8363163;28;19916;-46
2021/08/14 17:07:47;;;;;;;;;;;27.50;49.10;;;;;;8363843;28;19921;-44
2021/08/14 17:11:47;;;;;;;;;;;27.60;49.10;;;;;;8362919;28;19917;-43
2021/08/14 17:15:48;;;;;;;;;;;27.60;49.10;;;;;;8364316;28;20298;-45
2021/08/14 17:19:48;;;;;;;;;;;27.60;49.10;;;;;;8363598;28;20397;-43
2021/08/14 17:23:49;;;;;;;;;;;27.60;49.10;;;;;;8362808;28;20324;-45
2021/08/14 17:27:50;;;;;;;;;;;27.60;49.10;;;;;;8363596;28;19939;-44
2021/08/14 17:31:50;;;;;;;;;;;27.60;49.20;;;;;;8363308;28;19931;-43
2021/08/14 17:35:51;;;;;;;;;;;27.60;49.10;;;;;;8363441;28;20405;-46
2021/08/14 17:39:51;;;;;;;;;;;27.60;49.20;;;;;;8363034;28;20003;-44
2021/08/14 17:43:52;;;;;;;;;;;27.60;49.20;;;;;;8362851;28;19921;-44
2021/08/14 17:47:52;;;;;;;;;;;27.60;49.20;;;;;;8362407;28;19924;-44
2021/08/14 17:51:53;;;;;;;;;;;27.60;49.10;;;;;;8363935;28;19921;-44
2021/08/14 17:55:53;;;;;;;;;;;27.60;49.10;;;;;;8362652;28;19924;-43
2021/08/14 17:59:53;;;;;;;;;;;27.60;49.10;;;;;;8366657;28;19928;-43
2021/08/14 18:03:54;;;;;;;;;;;27.60;49.10;;;;;;8369287;28;20007;-44
2021/08/14 18:07:54;;;;;;;;;;;27.60;49.10;;;;;;8369253;28;19920;-43
2021/08/14 18:11:55;;;;;;;;;;;27.60;49.20;;;;;;8368626;28;19917;-44
2021/08/14 18:15:55;;;;;;;;;;;27.60;49.10;;;;;;8368452;28;19925;-47
2021/08/14 18:19:56;;;;;;;;;;;27.60;49.20;;;;;;8368744;28;19917;-47
2021/08/14 18:23:57;;;;;;;;;;;27.60;49.20;;;;;;8368026;28;19960;-43
2021/08/14 18:27:57;;;;;;;;;;;27.60;49.20;;;;;;8369276;28;19999;-43
2021/08/14 18:31:59;;;;;;;;;;;27.60;49.30;;;;;;8368299;28;20427;-45
2021/08/14 18:36:00;;;;;;;;;;;27.60;49.30;;;;;;8367755;28;19978;-43
2021/08/14 18:40:04;;;;;;;;;;;27.60;49.40;;;;;;8367897;28;19924;-44
2021/08/14 18:44:05;;;;;;;;;;;27.60;49.40;;;;;;8368648;28;19917;-43
2021/08/14 18:48:06;;;;;;;;;;;27.60;49.50;;;;;;8367405;28;20293;-43
2021/08/14 18:52:06;;;;;;;;;;;27.60;49.60;;;;;;8367584;28;19917;-44
2021/08/14 18:56:07;;;;;;;;;;;27.60;49.70;;;;;;8367286;28;20011;-44
2021/08/14 19:00:08;;;;;;;;;;;27.60;49.90;;;;;;8366894;28;19935;-43
2021/08/14 19:04:08;;;;;;;;;;;27.60;50.50;;;;;;8367998;28;19970;-43
2021/08/14 19:08:09;;;;;;;;;;;27.60;50.60;;;;;;8366983;28;19921;-43
2021/08/14 19:12:16;;;;;;;;;;;27.60;50.70;;;;;;8366369;28;20087;-44
2021/08/14 19:16:16;;;;;;;;;;;27.60;50.70;;;;;;8367066;28;20463;-43
2021/08/14 19:20:17;;;;;;;;;;;27.60;50.70;;;;;;8367375;28;19921;-44
2021/08/14 19:24:17;;;;;;;;;;;27.50;50.70;;;;;;8366110;28;19917;-44
2021/08/14 19:28:18;;;;;;;;;;;27.50;51.00;;;;;;8366379;28;19959;-45
2021/08/14 19:32:18;;;;;;;;;;;27.50;51.20;;;;;;8366481;28;19917;-45
2021/08/14 19:36:19;;;;;;;;;;;27.50;51.20;;;;;;8366012;28;19966;-44
2021/08/14 19:40:19;;;;;;;;;;;27.50;51.00;;;;;;8366619;28;19923;-45
2021/08/14 19:44:20;;;;;;;;;;;27.50;50.80;;;;;;8365900;28;19925;-44
2021/08/14 19:48:21;;;;;;;;;;;27.50;50.90;;;;;;8365510;28;19921;-44
2021/08/14 19:52:21;;;;;;;;;;;27.50;50.70;;;;;;8365710;28;20386;-44
2021/08/14 19:56:22;;;;;;;;;;;27.40;50.90;;;;;;8366281;28;19971;-44
2021/08/14 20:00:22;;;;;;;;;;;27.40;50.50;;;;;;8364992;28;19923;-45
2021/08/14 20:04:23;;;;;;;;;;;27.40;50.30;;;;;;8365265;28;19924;-45
2021/08/14 20:08:23;;;;;;;;;;;27.40;50.30;;;;;;8365490;28;19982;-43
2021/08/14 20:12:24;;;;;;;;;;;27.40;50.20;;;;;;8365246;28;19940;-45
2021/08/14 20:16:24;;;;;;;;;;;27.40;50.20;;;;;;8364839;28;19976;-44
2021/08/14 20:20:25;;;;;;;;;;;27.40;50.10;;;;;;8364050;28;20325;-44
2021/08/14 20:24:27;;;;;;;;;;;27.40;50.10;;;;;;8363467;28;21424;-44
2021/08/14 20:28:28;;;;;;;;;;;27.40;50.00;;;;;;8364462;28;19948;-44
2021/08/14 20:32:28;;;;;;;;;;;27.40;50.00;;;;;;8365125;28;19917;-43
2021/08/14 20:36:29;;;;;;;;;;;27.40;49.90;;;;;;8363714;28;20428;-44
2021/08/14 20:40:30;;;;;;;;;;;27.30;49.80;;;;;;8364359;28;19924;-43
2021/08/14 20:44:30;;;;;;;;;;;27.40;49.90;;;;;;8364119;28;19924;-45
2021/08/14 20:48:31;;;;;;;;;;;27.40;49.90;;;;;;8364370;28;20012;-43
2021/08/14 20:52:31;;;;;;;;;;;27.40;49.80;;;;;;8363981;28;19929;-44
2021/08/14 20:56:32;;;;;;;;;;;27.40;49.80;;;;;;8364286;28;19940;-44
2021/08/14 21:00:33;;;;;;;;;;;27.40;49.70;;;;;;8363224;28;19920;-44
2021/08/14 21:04:33;;;;;;;;;;;27.40;49.80;;;;;;8364286;28;19921;-44
2021/08/14 21:08:34;;;;;;;;;;;27.40;49.80;;;;;;8364059;28;19920;-44
2021/08/14 21:12:34;;;;;;;;;;;27.40;49.70;;;;;;8363001;28;19917;-43
2021/08/14 21:16:35;;;;;;;;;;;27.40;49.70;;;;;;8363318;28;19925;-44
2021/08/14 21:20:35;;;;;;;;;;;27.40;49.70;;;;;;8363272;28;19920;-45
2021/08/14 21:24:36;;;;;;;;;;;27.40;49.70;;;;;;8363616;28;19917;-44
2021/08/14 21:28:36;;;;;;;;;;;27.40;49.70;;;;;;8363429;28;19926;-44
2021/08/14 21:32:37;;;;;;;;;;;27.40;49.70;;;;;;8365175;28;19952;-44
2021/08/14 21:36:37;;;;;;;;;;;27.40;49.70;;;;;;8369605;28;19991;-43
2021/08/14 21:40:38;;;;;;;;;;;27.40;49.70;;;;;;8370624;28;19916;-44
2021/08/14 21:44:38;;;;;;;;;;;27.40;49.70;;;;;;8369732;28;19917;-45
2021/08/14 21:48:40;;;;;;;;;;;27.40;49.70;;;;;;8369237;28;19917;-44
2021/08/14 21:52:41;;;;;;;;;;;27.40;49.60;;;;;;8369692;28;19921;-44
2021/08/14 21:56:41;;;;;;;;;;;27.40;49.60;;;;;;8370082;28;20022;-45
2021/08/14 22:00:42;;;;;;;;;;;27.40;49.60;;;;;;8368842;28;19920;-44
2021/08/14 22:04:43;;;;;;;;;;;27.40;49.60;;;;;;8368231;28;20412;-44
2021/08/14 22:08:43;;;;;;;;;;;27.40;49.60;;;;;;8368953;28;19920;-44
2021/08/14 22:12:44;;;;;;;;;;;27.40;49.60;;;;;;8368213;28;19920;-44
2021/08/14 22:16:44;;;;;;;;;;;27.40;49.60;;;;;;8369593;28;19925;-44
2021/08/14 22:20:45;;;;;;;;;;;27.40;49.60;;;;;;8368337;28;19943;-45
2021/08/14 22:24:46;;;;;;;;;;;27.40;49.60;;;;;;8367964;28;19917;-44
2021/08/14 22:28:47;;;;;;;;;;;27.40;49.60;;;;;;8368595;28;19917;-44
2021/08/14 22:32:48;;;;;;;;;;;27.40;49.70;;;;;;8368861;28;20326;-44
2021/08/14 22:36:48;;;;;;;;;;;27.40;49.60;;;;;;8367869;28;19925;-44
2021/08/14 22:40:49;;;;;;;;;;;27.30;49.60;;;;;;8367839;28;20015;-45
2021/08/14 22:44:50;;;;;;;;;;;27.40;49.70;;;;;;8366493;28;19923;-44
2021/08/14 22:48:50;;;;;;;;;;;27.30;49.70;;;;;;8368167;28;19917;-45
2021/08/14 22:52:51;;;;;;;;;;;27.30;49.70;;;;;;8368454;28;19963;-44
2021/08/14 22:56:52;;;;;;;;;;;27.30;49.70;;;;;;8367001;28;20031;-44
2021/08/14 23:00:52;;;;;;;;;;;27.30;49.70;;;;;;8367586;28;19920;-45
2021/08/14 23:04:53;;;;;;;;;;;27.30;49.80;;;;;;8367331;28;20007;-43
2021/08/14 23:08:53;;;;;;;;;;;27.30;49.90;;;;;;8367548;28;19920;-44
2021/08/14 23:12:54;;;;;;;;;;;27.30;49.70;;;;;;8366782;28;19923;-44
2021/08/14 23:16:55;;;;;;;;;;;27.30;49.80;;;;;;8366516;28;20279;-44
2021/08/14 23:20:55;;;;;;;;;;;27.30;49.80;;;;;;8366242;28;19917;-44